Time;durP1;ratioP1;P1;durP2;ratioP2;P2;SDS_P1;SDS_P2;PMS_P1;PMS_P2;Temp;Humidity;BMP_temperature;BMP_pressure;BME280_temperature;BME280_humidity;BME280_pressure;Samples;Min_cycle;Max_cycle;Signal;HPM_P1;HPM_P2
2022/04/08 00:00:27;;;;;;;3.13;1.35;;;5.10;99.90;;;;;;5039357;28;20044;-73
2022/04/08 00:02:54;;;;;;;3.10;1.30;;;5.10;99.90;;;;;;5037438;28;20071;-73
2022/04/08 00:05:21;;;;;;;3.70;1.45;;;5.10;99.90;;;;;;5025846;28;20100;-72
2022/04/08 00:07:48;;;;;;;5.03;2.33;;;5.10;99.90;;;;;;5050767;28;20395;-73
2022/04/08 00:10:15;;;;;;;2.67;1.30;;;5.10;99.90;;;;;;5026738;28;20493;-73
2022/04/08 00:12:44;;;;;;;3.38;1.38;;;5.10;99.90;;;;;;5032642;28;20491;-73
2022/04/08 00:15:11;;;;;;;4.03;1.20;;;5.10;99.90;;;;;;5041103;28;20096;-73
2022/04/08 00:17:38;;;;;;;5.55;1.70;;;5.00;99.90;;;;;;5026115;28;20286;-73
2022/04/08 00:20:05;;;;;;;4.38;1.50;;;5.00;99.90;;;;;;5028744;28;20056;-73
2022/04/08 00:22:33;;;;;;;4.05;1.83;;;5.00;99.90;;;;;;5032854;28;20060;-73
2022/04/08 00:25:00;;;;;;;3.08;1.27;;;4.90;99.90;;;;;;5037905;28;20046;-72
2022/04/08 00:27:27;;;;;;;3.17;1.40;;;4.90;99.90;;;;;;5028582;28;20119;-72
2022/04/08 00:29:54;;;;;;;3.83;1.40;;;4.90;99.90;;;;;;5032970;28;20048;-73
2022/04/08 00:32:20;;;;;;;4.55;1.25;;;4.90;99.90;;;;;;5035516;28;20049;-74
2022/04/08 00:34:47;;;;;;;2.83;1.25;;;4.90;99.90;;;;;;5047650;28;20049;-74
2022/04/08 00:37:14;;;;;;;4.80;1.40;;;4.90;99.90;;;;;;5050523;28;20052;-73
2022/04/08 00:39:41;;;;;;;5.85;1.73;;;4.90;99.90;;;;;;5023769;28;20048;-73
2022/04/08 00:42:08;;;;;;;7.53;2.00;;;4.90;99.90;;;;;;5047923;28;20041;-73
2022/04/08 00:44:35;;;;;;;4.50;1.63;;;4.90;99.90;;;;;;5034847;28;20087;-74
2022/04/08 00:47:04;;;;;;;5.50;1.58;;;4.80;99.90;;;;;;5053201;28;20049;-73
2022/04/08 00:49:35;;;;;;;6.22;1.98;;;4.80;99.90;;;;;;5042390;28;20041;-73
2022/04/08 00:52:03;;;;;;;4.45;2.50;;;4.70;99.90;;;;;;5033170;28;20057;-73
2022/04/08 00:54:30;;;;;;;9.80;2.67;;;4.70;99.90;;;;;;5034592;28;20073;-74
2022/04/08 00:56:57;;;;;;;3.05;1.90;;;4.70;99.90;;;;;;5039588;28;20049;-73
2022/04/08 00:59:25;;;;;;;4.90;1.88;;;4.70;99.90;;;;;;5053091;28;20048;-73
2022/04/08 01:01:52;;;;;;;5.18;2.00;;;4.60;99.90;;;;;;5032206;28;20455;-72
2022/04/08 01:04:23;;;;;;;5.68;1.80;;;4.60;99.90;;;;;;5034932;28;20128;-72
2022/04/08 01:06:50;;;;;;;6.00;1.88;;;4.50;99.90;;;;;;5030070;28;20072;-73
2022/04/08 01:09:17;;;;;;;3.92;1.52;;;4.50;99.90;;;;;;5048070;28;20147;-73
2022/04/08 01:11:44;;;;;;;3.08;1.55;;;4.40;99.90;;;;;;5033196;28;20366;-73
2022/04/08 01:14:13;;;;;;;3.92;1.67;;;4.40;99.90;;;;;;5032922;28;20076;-73
2022/04/08 01:16:40;;;;;;;3.50;1.70;;;4.40;99.90;;;;;;5039401;28;20485;-72
2022/04/08 01:19:07;;;;;;;5.40;2.00;;;4.30;99.90;;;;;;5032852;28;20155;-73
2022/04/08 01:21:34;;;;;;;3.03;1.55;;;4.30;99.90;;;;;;5032704;28;20057;-73
2022/04/08 01:24:01;;;;;;;4.22;1.80;;;4.30;99.90;;;;;;5042070;28;20053;-73
2022/04/08 01:26:28;;;;;;;5.57;1.48;;;4.30;99.90;;;;;;5027180;28;20057;-72
2022/04/08 01:28:55;;;;;;;6.32;2.10;;;4.30;99.90;;;;;;5033839;28;20053;-73
2022/04/08 01:31:24;;;;;;;4.90;2.38;;;4.30;99.90;;;;;;5032691;28;20044;-73
2022/04/08 01:33:52;;;;;;;3.90;1.50;;;4.30;99.90;;;;;;5035497;28;20037;-72
2022/04/08 01:36:19;;;;;;;6.63;1.95;;;4.30;99.90;;;;;;5052460;28;20061;-73
2022/04/08 01:38:46;;;;;;;5.68;1.90;;;4.30;99.90;;;;;;5047818;28;20057;-72
2022/04/08 01:41:16;;;;;;;6.70;1.80;;;4.30;99.90;;;;;;5032411;28;20049;-73
2022/04/08 01:43:44;;;;;;;7.15;2.22;;;4.30;99.90;;;;;;5034214;28;20061;-72
2022/04/08 01:46:11;;;;;;;3.72;2.35;;;4.30;99.90;;;;;;5035388;28;20045;-73
2022/04/08 01:48:38;;;;;;;5.88;2.25;;;4.30;99.90;;;;;;5032695;28;20046;-73
2022/04/08 01:51:05;;;;;;;3.67;1.52;;;4.20;99.90;;;;;;5035315;28;20047;-73
2022/04/08 01:53:32;;;;;;;5.03;2.33;;;4.30;99.90;;;;;;5051864;28;20057;-72
2022/04/08 01:55:58;;;;;;;3.63;1.50;;;4.30;99.90;;;;;;5048095;28;20096;-72
2022/04/08 01:58:25;;;;;;;4.60;1.70;;;4.30;99.90;;;;;;5033841;28;20413;-73
2022/04/08 02:00:52;;;;;;;5.82;2.35;;;4.20;99.90;;;;;;5037870;28;20508;-72
2022/04/08 02:03:20;;;;;;;5.55;1.85;;;4.20;99.90;;;;;;5043666;28;20041;-72
2022/04/08 02:05:47;;;;;;;7.32;1.90;;;4.30;99.90;;;;;;5033306;28;20057;-73
2022/04/08 02:08:14;;;;;;;6.22;2.28;;;4.30;99.90;;;;;;5043910;28;20053;-72
2022/04/08 02:10:41;;;;;;;5.47;1.85;;;4.30;99.90;;;;;;5023723;28;20041;-72
2022/04/08 02:13:08;;;;;;;5.32;1.95;;;4.30;99.90;;;;;;5044295;28;20052;-72
2022/04/08 02:15:35;;;;;;;3.53;1.50;;;4.30;99.90;;;;;;5038636;28;20062;-72
2022/04/08 02:18:02;;;;;;;7.25;2.20;;;4.30;99.90;;;;;;5043521;28;20489;-72
2022/04/08 02:20:32;;;;;;;5.47;2.10;;;4.40;99.90;;;;;;5033895;28;20049;-72
2022/04/08 02:22:59;;;;;;;10.18;2.15;;;4.40;99.90;;;;;;5028972;28;20053;-72
2022/04/08 02:25:26;;;;;;;4.30;1.48;;;4.40;99.90;;;;;;5034930;28;20332;-71
2022/04/08 02:27:53;;;;;;;3.70;1.83;;;4.50;99.90;;;;;;5019303;28;20057;-71
2022/04/08 02:30:20;;;;;;;3.25;1.88;;;4.50;99.90;;;;;;5031899;28;20460;-72
2022/04/08 02:32:47;;;;;;;3.05;1.73;;;4.50;99.90;;;;;;5037287;28;20459;-71
2022/04/08 02:35:14;;;;;;;6.00;2.22;;;4.50;99.90;;;;;;5046782;28;20045;-71
2022/04/08 02:37:41;;;;;;;6.97;2.13;;;4.50;99.90;;;;;;5031348;28;20481;-71
2022/04/08 02:40:08;;;;;;;7.78;2.33;;;4.50;99.90;;;;;;5015703;28;20059;-71
2022/04/08 02:42:35;;;;;;;9.95;2.85;;;4.50;99.90;;;;;;5032398;28;20053;-71
2022/04/08 02:45:02;;;;;;;10.07;3.65;;;4.50;99.90;;;;;;5038443;28;20045;-71
2022/04/08 02:47:29;;;;;;;6.18;2.60;;;4.50;99.90;;;;;;5035749;28;20052;-71
2022/04/08 02:49:56;;;;;;;3.85;2.10;;;4.50;99.90;;;;;;5041411;28;20048;-71
2022/04/08 02:52:23;;;;;;;5.45;1.63;;;4.50;99.90;;;;;;5044540;28;20056;-71
2022/04/08 02:54:49;;;;;;;5.75;1.73;;;4.50;99.90;;;;;;5049134;28;20049;-72
2022/04/08 02:57:16;;;;;;;5.72;2.00;;;4.50;99.90;;;;;;5034289;28;20115;-71
2022/04/08 02:59:43;;;;;;;4.97;1.67;;;4.50;99.90;;;;;;5049329;28;20405;-72
2022/04/08 03:02:10;;;;;;;4.57;2.40;;;4.50;99.90;;;;;;5034302;28;20056;-72
2022/04/08 03:04:37;;;;;;;5.72;2.45;;;4.40;99.90;;;;;;5043049;28;20080;-71
2022/04/08 03:07:04;;;;;;;6.38;2.75;;;4.40;99.90;;;;;;5044914;28;20049;-71
2022/04/08 03:09:31;;;;;;;5.60;2.60;;;4.40;99.90;;;;;;5035626;28;20402;-72
2022/04/08 03:11:58;;;;;;;4.00;2.00;;;4.40;99.90;;;;;;5036756;28;20496;-71
2022/04/08 03:14:25;;;;;;;5.75;2.17;;;4.30;99.90;;;;;;5047632;28;20048;-71
2022/04/08 03:16:52;;;;;;;6.57;2.55;;;4.30;99.90;;;;;;5015846;28;20053;-71
2022/04/08 03:19:18;;;;;;;8.50;1.90;;;4.30;99.90;;;;;;5032143;28;20071;-71
2022/04/08 03:21:46;;;;;;;5.45;2.55;;;4.30;99.90;;;;;;5032117;28;20050;-72
2022/04/08 03:24:14;;;;;;;5.60;2.25;;;4.30;99.90;;;;;;5034124;28;20094;-71
2022/04/08 03:26:42;;;;;;;7.75;2.47;;;4.30;99.90;;;;;;5030199;28;20060;-71
2022/04/08 03:29:09;;;;;;;9.23;1.90;;;4.30;99.90;;;;;;5023852;28;20049;-71
2022/04/08 03:31:37;;;;;;;4.70;1.67;;;4.30;99.90;;;;;;5036465;28;20064;-71
2022/04/08 03:34:04;;;;;;;3.78;1.90;;;4.30;99.90;;;;;;5051310;28;20080;-71
2022/04/08 03:36:30;;;;;;;6.32;2.70;;;4.30;99.90;;;;;;5034959;28;20049;-71
2022/04/08 03:38:57;;;;;;;7.10;1.83;;;4.30;99.90;;;;;;5036296;28;20046;-71
2022/04/08 03:41:24;;;;;;;10.05;2.00;;;4.30;99.90;;;;;;5030760;28;20057;-71
2022/04/08 03:43:51;;;;;;;4.32;1.80;;;4.30;99.90;;;;;;5021396;28;20041;-71
2022/04/08 03:46:18;;;;;;;7.53;2.10;;;4.30;99.90;;;;;;5040028;28;20064;-71
2022/04/08 03:48:45;;;;;;;7.10;1.85;;;4.30;99.90;;;;;;5031806;28;20041;-71
2022/04/08 03:51:12;;;;;;;3.05;1.70;;;4.30;99.90;;;;;;5035644;28;20052;-71
2022/04/08 03:53:39;;;;;;;5.03;1.98;;;4.30;99.90;;;;;;5030217;28;20476;-71
2022/04/08 03:56:05;;;;;;;6.30;2.10;;;4.40;99.90;;;;;;5047436;28;20052;-73
2022/04/08 03:58:32;;;;;;;2.88;1.88;;;4.40;99.90;;;;;;5049012;28;20053;-71
2022/04/08 04:00:59;;;;;;;9.57;2.58;;;4.40;99.90;;;;;;5031637;28;20053;-73
2022/04/08 04:03:26;;;;;;;3.67;1.90;;;4.40;99.90;;;;;;5043667;28;20044;-73
2022/04/08 04:05:53;;;;;;;7.22;1.90;;;4.40;99.90;;;;;;5047658;28;20045;-73
2022/04/08 04:08:20;;;;;;;5.28;1.92;;;4.40;99.90;;;;;;5046653;28;20142;-73
2022/04/08 04:10:48;;;;;;;5.75;2.20;;;4.40;99.90;;;;;;5048771;28;20045;-73
2022/04/08 04:13:15;;;;;;;5.95;1.90;;;4.40;99.90;;;;;;5042079;28;20038;-73
2022/04/08 04:15:42;;;;;;;3.55;1.67;;;4.40;99.90;;;;;;5033060;28;20095;-73
2022/04/08 04:18:09;;;;;;;7.60;2.03;;;4.50;99.90;;;;;;5031621;28;20099;-73
2022/04/08 04:20:36;;;;;;;6.15;2.95;;;4.50;99.90;;;;;;5028856;28;20085;-73
2022/04/08 04:23:03;;;;;;;8.07;1.67;;;4.50;99.90;;;;;;5029539;28;20154;-72
2022/04/08 04:25:30;;;;;;;7.40;2.53;;;4.40;99.90;;;;;;5031092;28;20440;-71
2022/04/08 04:27:57;;;;;;;5.30;2.40;;;4.40;99.90;;;;;;5031923;28;20056;-73
2022/04/08 04:30:26;;;;;;;4.57;2.00;;;4.50;99.90;;;;;;5043642;28;20047;-73
2022/04/08 04:32:53;;;;;;;4.00;1.90;;;4.50;99.90;;;;;;5033551;28;20512;-73
2022/04/08 04:35:21;;;;;;;4.72;3.22;;;4.50;99.90;;;;;;5045322;28;20301;-73
2022/04/08 04:37:48;;;;;;;8.02;2.85;;;4.50;99.90;;;;;;5028982;28;20068;-73
2022/04/08 04:40:14;;;;;;;6.90;2.60;;;4.50;99.90;;;;;;5043133;28;20052;-73
2022/04/08 04:42:42;;;;;;;6.68;2.90;;;4.50;99.90;;;;;;5031240;28;20050;-73
2022/04/08 04:45:10;;;;;;;8.30;2.30;;;4.50;99.90;;;;;;5026048;28;20055;-72
2022/04/08 04:47:38;;;;;;;4.63;2.13;;;4.50;99.90;;;;;;5041799;28;20050;-73
2022/04/08 04:50:05;;;;;;;5.18;2.22;;;4.50;99.90;;;;;;5030385;28;20050;-73
2022/04/08 04:52:32;;;;;;;5.93;2.28;;;4.50;99.90;;;;;;5015755;28;20056;-73
2022/04/08 04:54:59;;;;;;;6.55;2.30;;;4.50;99.90;;;;;;5032181;28;20068;-73
2022/04/08 04:57:26;;;;;;;4.47;2.67;;;4.50;99.90;;;;;;5039493;28;20059;-72
2022/04/08 04:59:53;;;;;;;6.10;2.30;;;4.50;99.90;;;;;;5032983;28;20063;-73
2022/04/08 05:02:20;;;;;;;5.40;1.80;;;4.50;99.90;;;;;;5048201;28;20049;-72
2022/04/08 05:04:47;;;;;;;5.78;2.30;;;4.50;99.90;;;;;;5049306;28;20052;-73
2022/04/08 05:07:14;;;;;;;11.52;3.53;;;4.50;99.90;;;;;;5038814;28;20049;-73
2022/04/08 05:09:41;;;;;;;3.80;1.95;;;4.50;99.90;;;;;;5024096;28;20050;-73
2022/04/08 05:12:09;;;;;;;4.38;2.10;;;4.50;99.90;;;;;;5035507;28;20057;-73
2022/04/08 05:14:36;;;;;;;6.53;2.13;;;4.50;99.90;;;;;;5037980;28;20045;-73
2022/04/08 05:17:03;;;;;;;11.55;3.72;;;4.60;99.90;;;;;;5047874;28;20049;-73
2022/04/08 05:19:30;;;;;;;6.45;2.55;;;4.60;99.90;;;;;;5048118;28;20073;-73
2022/04/08 05:21:57;;;;;;;8.75;3.72;;;4.60;99.90;;;;;;5034054;28;20464;-74
2022/04/08 05:24:24;;;;;;;3.55;2.13;;;4.60;99.90;;;;;;5046029;28;20076;-73
2022/04/08 05:26:51;;;;;;;5.90;2.10;;;4.60;99.90;;;;;;5035501;28;20067;-72
2022/04/08 05:29:18;;;;;;;9.45;3.20;;;4.60;99.90;;;;;;5035710;28;20041;-72
2022/04/08 05:31:44;;;;;;;8.35;3.22;;;4.60;99.90;;;;;;5048728;28;20847;-73
2022/04/08 05:34:12;;;;;;;6.97;3.20;;;4.60;99.90;;;;;;5052637;28;20045;-72
2022/04/08 05:36:39;;;;;;;9.98;3.22;;;4.60;99.90;;;;;;5018827;28;20057;-73
2022/04/08 05:39:06;;;;;;;10.32;2.88;;;4.60;99.90;;;;;;5039863;28;20049;-73
2022/04/08 05:41:33;;;;;;;6.63;2.72;;;4.60;99.90;;;;;;5045396;28;20049;-73
2022/04/08 05:44:00;;;;;;;6.20;3.42;;;4.60;99.90;;;;;;5035215;28;20041;-73
2022/04/08 05:46:27;;;;;;;5.82;2.38;;;4.60;99.90;;;;;;5034597;28;20129;-73
2022/04/08 05:48:54;;;;;;;4.85;2.25;;;4.60;99.90;;;;;;5051903;28;20040;-72
2022/04/08 05:51:21;;;;;;;6.10;2.38;;;4.70;99.90;;;;;;5018824;28;20055;-72
2022/04/08 05:54:05;;;;;;;5.78;2.50;;;4.60;99.90;;;;;;5015985;28;20567;-72
2022/04/08 05:56:32;;;;;;;5.55;3.25;;;4.70;99.90;;;;;;5018998;28;20053;-72
2022/04/08 05:58:59;;;;;;;5.72;2.17;;;4.70;99.90;;;;;;5037685;28;20416;-73
2022/04/08 06:01:26;;;;;;;4.93;2.28;;;4.70;99.90;;;;;;5045617;28;20054;-72
2022/04/08 06:03:53;;;;;;;5.32;3.08;;;4.70;99.90;;;;;;5031460;28;20045;-70
2022/04/08 06:06:20;;;;;;;5.70;2.13;;;4.70;99.90;;;;;;5039609;28;20054;-73
2022/04/08 06:08:47;;;;;;;7.22;4.20;;;4.80;99.90;;;;;;5047050;28;20045;-76
2022/04/08 06:11:14;;;;;;;71.35;45.20;;;4.80;99.90;;;;;;5041676;28;20060;-76
2022/04/08 06:13:43;;;;;;;17.67;12.70;;;4.90;99.90;;;;;;5050394;28;20049;-76
2022/04/08 06:16:10;;;;;;;13.10;7.25;;;4.90;99.90;;;;;;5039073;28;20045;-75
2022/04/08 06:18:37;;;;;;;12.80;5.35;;;4.90;99.90;;;;;;5034148;28;20049;-74
2022/04/08 06:21:04;;;;;;;6.60;4.13;;;4.90;99.90;;;;;;5044259;28;20045;-76
2022/04/08 06:23:31;;;;;;;6.82;3.20;;;5.00;99.90;;;;;;5048660;28;20045;-66
2022/04/08 06:25:58;;;;;;;7.28;2.83;;;5.10;99.90;;;;;;5065145;28;20046;-70
2022/04/08 06:28:25;;;;;;;20.92;11.70;;;5.10;99.90;;;;;;5048843;28;20064;-72
2022/04/08 06:30:52;;;;;;;11.50;6.20;;;5.10;99.90;;;;;;5036458;28;20056;-69
2022/04/08 06:33:18;;;;;;;12.90;7.40;;;5.20;99.90;;;;;;5050363;28;20095;-72
2022/04/08 06:35:45;;;;;;;11.57;4.18;;;5.20;99.90;;;;;;5040158;28;20050;-71
2022/04/08 06:38:14;;;;;;;8.68;2.97;;;5.30;99.90;;;;;;5036195;28;20140;-71
2022/04/08 06:40:41;;;;;;;5.65;3.33;;;5.30;99.90;;;;;;5031489;28;20041;-71
2022/04/08 06:43:08;;;;;;;9.60;2.65;;;5.40;99.90;;;;;;5032684;28;20064;-71
2022/04/08 06:45:35;;;;;;;6.60;2.90;;;5.50;99.90;;;;;;5015003;28;20045;-71
2022/04/08 06:48:02;;;;;;;8.68;2.92;;;5.50;99.90;;;;;;5032865;28;20129;-71
2022/04/08 06:50:29;;;;;;;5.70;2.55;;;5.50;99.90;;;;;;5031572;28;20131;-73
2022/04/08 06:53:00;;;;;;;6.13;2.78;;;5.60;99.90;;;;;;5032149;28;20056;-73
2022/04/08 06:55:31;;;;;;;9.80;2.65;;;5.70;99.90;;;;;;5030991;28;20041;-74
2022/04/08 06:57:59;;;;;;;6.43;2.53;;;5.70;99.90;;;;;;5029914;28;20053;-74
2022/04/08 07:00:26;;;;;;;4.47;2.28;;;5.80;99.90;;;;;;5031190;28;20156;-74
2022/04/08 07:02:53;;;;;;;9.18;2.80;;;5.90;99.90;;;;;;5042044;28;20045;-73
2022/04/08 07:05:21;;;;;;;8.07;2.78;;;5.90;99.90;;;;;;5004369;28;20046;-74
2022/04/08 07:07:48;;;;;;;6.88;2.55;;;6.00;99.90;;;;;;5036452;28;20461;-74
2022/04/08 07:10:14;;;;;;;7.40;3.30;;;6.00;99.90;;;;;;5033303;28;20481;-68
2022/04/08 07:12:41;;;;;;;11.10;2.67;;;6.10;99.90;;;;;;5036524;28;20053;-69
2022/04/08 07:15:09;;;;;;;8.02;3.33;;;6.20;99.90;;;;;;5045779;28;20086;-72
2022/04/08 07:17:36;;;;;;;5.80;3.33;;;6.20;99.90;;;;;;5042003;28;20056;-77
2022/04/08 07:20:14;;;;;;;5.55;3.55;;;6.20;99.90;;;;;;5016146;28;20520;-74
2022/04/08 07:22:42;;;;;;;5.93;3.78;;;6.30;99.90;;;;;;5014959;28;20049;-73
2022/04/08 07:25:09;;;;;;;6.65;2.50;;;6.30;99.90;;;;;;5047417;28;20489;-71
2022/04/08 07:27:47;;;;;;;7.07;2.97;;;6.40;99.90;;;;;;5026993;28;20057;-77
2022/04/08 07:30:15;;;;;;;6.50;2.95;;;6.50;99.90;;;;;;4995482;28;20054;-74
2022/04/08 07:32:42;;;;;;;5.97;3.30;;;6.50;99.90;;;;;;5007632;28;20401;-74
2022/04/08 07:35:10;;;;;;;8.25;3.60;;;6.60;99.90;;;;;;5031131;28;20218;-74
2022/04/08 07:37:37;;;;;;;8.75;3.70;;;6.60;99.90;;;;;;5023665;28;20404;-76
2022/04/08 07:40:08;;;;;;;11.13;4.47;;;6.60;99.90;;;;;;5018670;28;20100;-69
2022/04/08 07:42:35;;;;;;;43.80;28.42;;;6.60;99.90;;;;;;5039223;28;20048;-72
2022/04/08 07:45:06;;;;;;;9.02;5.00;;;6.60;99.90;;;;;;5018407;28;20053;-71
2022/04/08 07:47:35;;;;;;;7.45;3.03;;;6.60;99.90;;;;;;5030616;28;20469;-71
2022/04/08 07:50:10;;;;;;;8.70;2.60;;;6.60;99.90;;;;;;5032059;28;20053;-72
2022/04/08 07:52:38;;;;;;;15.93;3.95;;;6.60;99.90;;;;;;5062934;28;20049;-71
2022/04/08 07:55:06;;;;;;;9.20;3.35;;;6.60;99.90;;;;;;5032227;28;20073;-71
2022/04/08 07:57:33;;;;;;;6.68;3.05;;;6.60;99.90;;;;;;5048326;28;20059;-71
2022/04/08 08:00:00;;;;;;;8.85;3.53;;;6.70;99.90;;;;;;5038619;28;20081;-68
2022/04/08 08:02:29;;;;;;;6.45;3.33;;;6.70;99.90;;;;;;5032118;28;20053;-68
2022/04/08 08:04:56;;;;;;;7.55;3.22;;;6.70;99.90;;;;;;5042770;28;20045;-67
2022/04/08 08:07:23;;;;;;;6.35;2.60;;;6.70;99.90;;;;;;5035697;28;20059;-69
2022/04/08 08:09:50;;;;;;;9.27;3.47;;;6.70;99.90;;;;;;5038267;28;20049;-66
2022/04/08 08:12:22;;;;;;;6.60;3.20;;;6.80;99.90;;;;;;5038174;28;20078;-67
2022/04/08 08:14:49;;;;;;;6.60;3.25;;;6.80;99.90;;;;;;5004777;28;20072;-68
2022/04/08 08:17:16;;;;;;;8.60;3.25;;;6.90;99.90;;;;;;5024992;28;20483;-67
2022/04/08 08:19:43;;;;;;;8.05;2.67;;;6.90;99.90;;;;;;5018384;28;20049;-68
2022/04/08 08:22:10;;;;;;;7.68;2.55;;;6.90;99.90;;;;;;5035129;28;20140;-69
2022/04/08 08:24:37;;;;;;;6.13;2.78;;;7.00;99.90;;;;;;5037741;28;20514;-69
2022/04/08 08:27:04;;;;;;;5.13;3.10;;;7.10;99.90;;;;;;5039790;28;20128;-70
2022/04/08 08:29:31;;;;;;;7.13;2.42;;;7.20;99.90;;;;;;5026661;28;20088;-71
2022/04/08 08:31:58;;;;;;;31.55;17.90;;;7.30;99.90;;;;;;5031194;28;20052;-71
2022/04/08 08:34:26;;;;;;;10.73;5.30;;;7.40;99.90;;;;;;5043926;28;20041;-70
2022/04/08 08:36:57;;;;;;;9.07;3.88;;;7.50;99.90;;;;;;5037155;28;20046;-71
2022/04/08 08:39:24;;;;;;;9.55;3.45;;;7.50;99.90;;;;;;5029466;28;20128;-76
2022/04/08 08:41:51;;;;;;;10.30;3.10;;;7.60;99.90;;;;;;5046806;28;20052;-70
2022/04/08 08:44:19;;;;;;;14.23;4.45;;;7.60;99.90;;;;;;5033800;28;20159;-70
2022/04/08 08:46:46;;;;;;;8.05;3.05;;;7.60;99.90;;;;;;5035430;28;20126;-70
2022/04/08 08:49:16;;;;;;;8.82;3.60;;;7.60;99.90;;;;;;5033731;28;20554;-70
2022/04/08 08:51:43;;;;;;;9.02;4.43;;;7.70;99.90;;;;;;5033643;28;20860;-72
2022/04/08 08:54:10;;;;;;;6.50;3.90;;;7.70;99.90;;;;;;5017657;28;20064;-70
2022/04/08 08:56:37;;;;;;;10.20;3.80;;;7.80;99.90;;;;;;5035137;28;20495;-70
2022/04/08 08:59:04;;;;;;;7.85;3.25;;;7.80;99.90;;;;;;5034468;28;20179;-71
2022/04/08 09:01:30;;;;;;;10.02;3.40;;;7.80;99.90;;;;;;5037497;28;20056;-72
2022/04/08 09:03:58;;;;;;;10.38;4.45;;;7.80;99.90;;;;;;5036805;28;20125;-70
2022/04/08 09:06:25;;;;;;;6.10;4.22;;;7.80;99.90;;;;;;5044596;28;20053;-72
2022/04/08 09:08:59;;;;;;;11.35;3.78;;;7.80;99.90;;;;;;5046777;28;20057;-68
2022/04/08 09:11:27;;;;;;;13.70;4.95;;;7.80;99.90;;;;;;5033941;28;20049;-69
2022/04/08 09:14:03;;;;;;;8.98;3.42;;;7.90;99.90;;;;;;5033618;28;20045;-71
2022/04/08 09:16:35;;;;;;;12.85;4.22;;;8.00;99.90;;;;;;5034027;28;20064;-69
2022/04/08 09:19:12;;;;;;;17.10;5.55;;;8.00;99.90;;;;;;5015400;28;20056;-69
2022/04/08 09:21:50;;;;;;;12.43;4.43;;;7.90;99.90;;;;;;5065873;28;20041;-70
2022/04/08 09:24:17;;;;;;;12.85;4.53;;;7.90;99.90;;;;;;5033521;28;20056;-71
2022/04/08 09:26:44;;;;;;;15.68;5.82;;;7.90;99.90;;;;;;5052624;28;20103;-72
2022/04/08 09:29:10;;;;;;;13.55;3.70;;;7.90;99.90;;;;;;5034965;28;20473;-73
2022/04/08 09:31:41;;;;;;;10.75;4.53;;;7.90;99.90;;;;;;5050257;28;20056;-70
2022/04/08 09:34:13;;;;;;;8.02;3.75;;;7.90;99.90;;;;;;5052511;28;20045;-69
2022/04/08 09:36:40;;;;;;;10.80;4.25;;;8.00;99.90;;;;;;5003085;28;20053;-71
2022/04/08 09:39:10;;;;;;;7.90;3.63;;;8.10;99.90;;;;;;5037042;28;20374;-76
2022/04/08 09:41:42;;;;;;;11.20;3.97;;;8.10;99.90;;;;;;5020977;28;20052;-72
2022/04/08 09:44:10;;;;;;;9.55;3.92;;;8.20;99.90;;;;;;5028311;28;20045;-72
2022/04/08 09:46:37;;;;;;;9.32;3.63;;;8.20;99.90;;;;;;5028208;28;20054;-73
2022/04/08 09:49:05;;;;;;;12.38;3.95;;;8.20;99.90;;;;;;5033587;28;20049;-71
2022/04/08 09:51:40;;;;;;;13.43;3.97;;;8.30;99.90;;;;;;5032898;28;20045;-70
2022/04/08 09:54:12;;;;;;;7.53;4.22;;;8.30;99.90;;;;;;5023689;28;20050;-69
2022/04/08 09:56:38;;;;;;;15.73;4.22;;;8.30;99.90;;;;;;5036394;28;20408;-68
2022/04/08 09:59:21;;;;;;;9.45;3.38;;;8.40;99.90;;;;;;5043121;28;20119;-72
2022/04/08 10:02:08;;;;;;;9.32;3.45;;;8.30;99.90;;;;;;5022294;28;20050;-70
2022/04/08 10:04:35;;;;;;;8.63;3.95;;;8.30;99.90;;;;;;5042094;28;20483;-71
2022/04/08 10:07:03;;;;;;;11.88;5.03;;;8.40;99.90;;;;;;5045517;28;20059;-71
2022/04/08 10:09:31;;;;;;;10.68;3.67;;;8.50;99.90;;;;;;5044108;28;20069;-69
2022/04/08 10:12:08;;;;;;;11.27;3.77;;;8.50;99.90;;;;;;5046703;28;20049;-70
2022/04/08 10:15:00;;;;;;;12.98;4.07;;;8.50;99.90;;;;;;5034362;28;20283;-70
2022/04/08 10:17:27;;;;;;;8.82;4.00;;;8.50;99.90;;;;;;5019637;28;20433;-73
2022/04/08 10:19:54;;;;;;;13.90;5.47;;;8.50;99.90;;;;;;5044297;28;20049;-70
2022/04/08 10:22:21;;;;;;;10.23;4.85;;;8.60;99.90;;;;;;5015617;28;20045;-70
2022/04/08 10:24:56;;;;;;;15.30;4.32;;;8.60;99.90;;;;;;5028008;28;20402;-74
2022/04/08 10:27:34;;;;;;;7.93;3.70;;;8.70;99.90;;;;;;5023490;28;20061;-75
2022/04/08 10:30:22;;;;;;;10.52;4.65;;;8.90;99.90;;;;;;5028472;28;20042;-70
2022/04/08 10:32:59;;;;;;;17.27;4.88;;;9.10;99.90;;;;;;5047543;28;20531;-71
2022/04/08 10:35:26;;;;;;;14.50;4.00;;;9.10;99.80;;;;;;5032649;28;20057;-71
2022/04/08 10:38:01;;;;;;;11.85;4.78;;;9.10;99.50;;;;;;5045072;28;20503;-70
2022/04/08 10:40:32;;;;;;;11.30;4.22;;;9.20;99.40;;;;;;5033296;28;20064;-74
2022/04/08 10:43:07;;;;;;;14.35;5.00;;;9.40;98.70;;;;;;5040421;28;20067;-72
2022/04/08 10:45:34;;;;;;;10.57;4.93;;;9.40;97.90;;;;;;5023582;28;20076;-71
2022/04/08 10:48:10;;;;;;;13.70;4.95;;;9.40;96.50;;;;;;5016190;28;20084;-67
2022/04/08 10:50:38;;;;;;;13.60;5.47;;;9.40;94.70;;;;;;5052369;28;20083;-68
2022/04/08 10:53:19;;;;;;;9.90;4.13;;;9.30;95.60;;;;;;5052291;28;20091;-74
2022/04/08 10:55:54;;;;;;;13.32;4.47;;;9.40;95.70;;;;;;5049940;28;20037;-71
2022/04/08 10:58:39;;;;;;;14.13;4.72;;;9.50;95.10;;;;;;5017897;28;20054;-71
2022/04/08 11:01:21;;;;;;;12.35;4.75;;;9.50;94.70;;;;;;5012093;28;20049;-75
2022/04/08 11:03:53;;;;;;;13.38;4.40;;;9.60;94.30;;;;;;5016276;28;20053;-69
2022/04/08 11:06:20;;;;;;;15.35;5.82;;;9.80;94.80;;;;;;5000750;28;20115;-74
2022/04/08 11:08:47;;;;;;;10.27;3.67;;;9.80;93.30;;;;;;5004729;28;20465;-71
2022/04/08 11:11:16;;;;;;;13.93;5.32;;;9.80;92.30;;;;;;5032809;28;20045;-74
2022/04/08 11:13:42;;;;;;;9.63;4.22;;;9.80;93.20;;;;;;5031480;28;20049;-74
2022/04/08 11:16:10;;;;;;;11.90;5.15;;;9.90;92.90;;;;;;5047408;28;20060;-72
2022/04/08 11:18:46;;;;;;;9.35;4.25;;;9.90;91.60;;;;;;5033885;28;20074;-73
2022/04/08 11:21:18;;;;;;;11.75;4.10;;;10.00;91.10;;;;;;5030942;28;20049;-72
2022/04/08 11:23:59;;;;;;;19.52;5.95;;;10.10;90.50;;;;;;5033860;28;20042;-75
2022/04/08 11:26:30;;;;;;;11.35;5.78;;;10.20;90.30;;;;;;5016872;28;20132;-70
2022/04/08 11:29:07;;;;;;;19.48;6.50;;;10.10;90.30;;;;;;5017397;28;20046;-74
2022/04/08 11:31:37;;;;;;;10.88;5.30;;;10.20;89.30;;;;;;5049592;28;20053;-70
2022/04/08 11:34:04;;;;;;;11.17;4.17;;;10.20;86.90;;;;;;5033767;28;20132;-71
2022/04/08 11:36:31;;;;;;;8.90;3.63;;;10.30;88.50;;;;;;5051696;28;20052;-72
2022/04/08 11:38:58;;;;;;;11.30;3.70;;;10.40;86.90;;;;;;5045337;28;20064;-71
2022/04/08 11:41:34;;;;;;;17.70;4.63;;;10.50;85.10;;;;;;5031190;28;20145;-68
2022/04/08 11:44:02;;;;;;;13.55;3.92;;;10.50;86.00;;;;;;5039876;28;20052;-71
2022/04/08 11:46:30;;;;;;;10.68;5.88;;;10.40;83.90;;;;;;5036485;28;20057;-70
2022/04/08 11:48:57;;;;;;;8.90;3.58;;;10.40;84.80;;;;;;5043239;28;20049;-72
2022/04/08 11:51:24;;;;;;;8.75;2.90;;;10.50;81.60;;;;;;5033751;28;20064;-73
2022/04/08 11:53:52;;;;;;;11.80;3.90;;;10.50;82.90;;;;;;5050291;28;20496;-74
2022/04/08 11:56:23;;;;;;;10.48;5.93;;;10.70;82.40;;;;;;5040436;28;20061;-70
2022/04/08 11:59:00;;;;;;;13.80;8.30;;;10.80;80.00;;;;;;5015372;28;20057;-71
2022/04/08 12:01:36;;;;;;;15.23;8.20;;;10.80;81.20;;;;;;4994744;28;20053;-69
2022/04/08 12:04:07;;;;;;;9.02;4.45;;;10.90;80.30;;;;;;5033534;28;20084;-71
2022/04/08 12:06:41;;;;;;;30.65;17.92;;;11.10;79.00;;;;;;5018523;28;20050;-70
2022/04/08 12:09:12;;;;;;;15.07;5.65;;;11.10;78.10;;;;;;5025078;28;20049;-68
2022/04/08 12:11:42;;;;;;;10.73;4.40;;;11.10;77.80;;;;;;5030498;28;20056;-70
2022/04/08 12:14:15;;;;;;;12.98;4.60;;;11.10;78.00;;;;;;5030450;28;20055;-67
2022/04/08 12:16:48;;;;;;;11.85;3.80;;;11.10;80.90;;;;;;5035005;28;20080;-73
2022/04/08 12:19:18;;;;;;;11.27;4.53;;;11.20;78.10;;;;;;5042912;28;20488;-70
2022/04/08 12:22:11;;;;;;;11.63;3.33;;;11.20;77.50;;;;;;5051313;28;20088;-74
2022/04/08 12:24:42;;;;;;;8.52;3.92;;;11.20;77.50;;;;;;5041020;28;20042;-69
2022/04/08 12:27:17;;;;;;;7.55;3.13;;;11.20;76.70;;;;;;5035267;28;20065;-66
2022/04/08 12:29:45;;;;;;;;;;;11.30;77.30;;;;;;5038071;28;20088;-73
2022/04/08 12:32:14;;;;;;;13.13;4.07;;;11.30;73.80;;;;;;5045334;28;19921;-73
2022/04/08 12:34:44;;;;;;;9.67;3.30;;;11.30;74.50;;;;;;5021097;28;20076;-74
2022/04/08 12:37:11;;;;;;;13.70;3.85;;;11.20;74.20;;;;;;5025425;28;20382;-74
2022/04/08 12:39:38;;;;;;;7.05;2.90;;;11.20;74.20;;;;;;5017470;28;20045;-70
2022/04/08 12:42:06;;;;;;;7.45;3.30;;;11.20;73.30;;;;;;5029304;28;20052;-72
2022/04/08 12:44:33;;;;;;;7.85;3.28;;;11.20;72.50;;;;;;5050200;28;20126;-68
2022/04/08 12:47:00;;;;;;;12.85;5.32;;;11.20;71.80;;;;;;5035738;28;20053;-69
2022/04/08 12:49:26;;;;;;;11.52;4.90;;;11.10;72.30;;;;;;5040433;28;20053;-69
2022/04/08 12:51:53;;;;;;;8.18;2.90;;;11.20;71.10;;;;;;5031657;28;20052;-72
2022/04/08 12:54:20;;;;;;;18.50;3.95;;;11.30;71.20;;;;;;5034723;28;20404;-73
2022/04/08 12:56:47;;;;;;;8.25;2.45;;;11.30;71.70;;;;;;5043748;28;20049;-71
2022/04/08 12:59:14;;;;;;;8.48;2.75;;;11.50;71.60;;;;;;5035475;28;20049;-72